createdAt,value
2022-10-15T00:01:28.189Z,100.00
2022-10-15T00:03:54.971Z,100.00
2022-10-15T00:06:21.784Z,100.00
2022-10-15T00:08:48.890Z,100.00
2022-10-15T00:11:18.296Z,100.00
2022-10-15T00:13:45.438Z,100.00
2022-10-15T00:16:17.512Z,100.00
2022-10-15T00:18:44.319Z,100.00
2022-10-15T00:21:12.792Z,100.00
2022-10-15T00:23:39.892Z,100.00
2022-10-15T00:26:12.805Z,100.00
2022-10-15T00:28:41.125Z,100.00
2022-10-15T00:31:11.319Z,100.00
2022-10-15T00:33:38.153Z,100.00
2022-10-15T00:36:08.083Z,100.00
2022-10-15T00:38:35.469Z,100.00
2022-10-15T00:41:05.315Z,100.00
2022-10-15T00:43:47.409Z,100.00
2022-10-15T00:46:27.383Z,100.00
2022-10-15T00:51:33.871Z,100.00
2022-10-15T00:54:00.716Z,100.00
2022-10-15T00:56:27.923Z,100.00
2022-10-15T00:58:55.431Z,100.00
2022-10-15T01:01:23.324Z,100.00
2022-10-15T01:03:50.023Z,100.00
2022-10-15T01:06:16.871Z,100.00
2022-10-15T01:08:43.621Z,100.00
2022-10-15T01:11:29.482Z,100.00
2022-10-15T01:14:36.732Z,100.00
2022-10-15T01:17:18.410Z,100.00
2022-10-15T01:20:29.528Z,100.00
2022-10-15T01:23:28.998Z,100.00
2022-10-15T01:26:11.142Z,100.00
2022-10-15T01:28:43.268Z,100.00
2022-10-15T01:31:36.237Z,100.00
2022-10-15T01:34:26.475Z,100.00
2022-10-15T01:37:09.470Z,100.00
2022-10-15T01:39:45.175Z,100.00
2022-10-15T01:42:19.749Z,100.00
2022-10-15T01:44:51.722Z,100.00
2022-10-15T01:47:23.238Z,100.00
2022-10-15T01:49:52.845Z,100.00
2022-10-15T01:52:28.359Z,100.00
2022-10-15T01:54:55.338Z,100.00
2022-10-15T01:57:25.091Z,100.00
2022-10-15T01:59:52.697Z,100.00
2022-10-15T02:02:19.470Z,100.00
2022-10-15T02:04:46.139Z,100.00
2022-10-15T02:07:37.822Z,100.00
2022-10-15T02:10:19.573Z,100.00
2022-10-15T02:12:54.267Z,100.00
2022-10-15T02:15:48.797Z,100.00
2022-10-15T02:18:24.290Z,100.00
2022-10-15T02:21:15.707Z,100.00
2022-10-15T02:24:03.464Z,100.00
2022-10-15T02:26:30.916Z,100.00
2022-10-15T02:28:59.454Z,100.00
2022-10-15T02:31:29.960Z,100.00
2022-10-15T02:33:58.822Z,100.00
2022-10-15T02:36:25.584Z,100.00
2022-10-15T02:38:55.023Z,100.00
2022-10-15T02:41:21.709Z,100.00
2022-10-15T02:43:48.805Z,100.00
2022-10-15T02:46:16.564Z,100.00
2022-10-15T02:48:43.214Z,100.00
2022-10-15T02:51:09.829Z,100.00
2022-10-15T02:53:36.477Z,100.00
2022-10-15T02:56:03.190Z,100.00
2022-10-15T02:58:30.917Z,100.00
2022-10-15T03:00:57.611Z,100.00
2022-10-15T03:03:24.259Z,100.00
2022-10-15T03:05:50.975Z,100.00
2022-10-15T03:08:17.577Z,100.00
2022-10-15T03:10:45.682Z,100.00
2022-10-15T03:13:12.520Z,100.00
2022-10-15T03:15:39.286Z,100.00
2022-10-15T03:18:06.240Z,100.00
2022-10-15T03:20:32.883Z,100.00
2022-10-15T03:22:59.508Z,100.00
2022-10-15T03:25:26.113Z,100.00
2022-10-15T03:27:59.553Z,100.00
2022-10-15T03:30:26.359Z,100.00
2022-10-15T03:32:53.014Z,100.00
2022-10-15T03:35:19.588Z,100.00
2022-10-15T03:37:46.172Z,100.00
2022-10-15T03:40:13.709Z,100.00
2022-10-15T03:42:41.428Z,100.00
2022-10-15T03:45:08.686Z,100.00
2022-10-15T03:47:35.488Z,100.00
2022-10-15T03:50:02.177Z,100.00
2022-10-15T03:52:28.771Z,100.00
2022-10-15T03:54:55.387Z,100.00
2022-10-15T03:57:22.012Z,100.00
2022-10-15T03:59:48.611Z,100.00
2022-10-15T04:02:15.479Z,100.00
2022-10-15T04:04:42.058Z,100.00
2022-10-15T04:07:08.735Z,100.00
2022-10-15T04:09:35.374Z,100.00
2022-10-15T04:12:01.990Z,100.00
2022-10-15T04:14:28.789Z,100.00
2022-10-15T04:16:56.428Z,100.00
2022-10-15T04:19:23.169Z,100.00
2022-10-15T04:21:49.795Z,100.00
2022-10-15T04:24:16.502Z,100.00
2022-10-15T04:26:43.288Z,100.00
2022-10-15T04:29:10.942Z,100.00
2022-10-15T04:31:45.818Z,100.00
2022-10-15T04:34:12.522Z,100.00
2022-10-15T04:36:39.321Z,100.00
2022-10-15T04:39:08.658Z,100.00
2022-10-15T04:41:37.586Z,100.00
2022-10-15T04:44:04.327Z,100.00
2022-10-15T04:46:34.017Z,100.00
2022-10-15T04:49:00.696Z,100.00
2022-10-15T04:51:27.415Z,100.00
2022-10-15T04:53:54.959Z,100.00
2022-10-15T04:56:22.348Z,100.00
2022-10-15T04:58:50.054Z,100.00
2022-10-15T05:01:18.734Z,100.00
2022-10-15T05:03:46.690Z,100.00
2022-10-15T05:06:18.326Z,100.00
2022-10-15T05:08:45.589Z,100.00
2022-10-15T05:12:03.757Z,100.00
2022-10-15T05:14:30.387Z,100.00
2022-10-15T05:16:57.026Z,100.00
2022-10-15T05:19:23.790Z,100.00
2022-10-15T05:21:53.753Z,100.00
2022-10-15T05:24:30.139Z,100.00
2022-10-15T05:27:01.825Z,100.00
2022-10-15T05:30:21.746Z,100.00
2022-10-15T05:32:53.059Z,100.00
2022-10-15T05:35:20.160Z,100.00
2022-10-15T05:37:47.273Z,100.00
2022-10-15T05:40:18.278Z,100.00
2022-10-15T05:45:19.496Z,100.00
2022-10-15T05:47:46.233Z,100.00
2022-10-15T05:50:13.335Z,100.00
2022-10-15T05:52:40.533Z,100.00
2022-10-15T05:55:07.837Z,100.00
2022-10-15T05:57:34.754Z,100.00
2022-10-15T06:00:02.071Z,100.00
2022-10-15T06:02:29.655Z,100.00
2022-10-15T06:04:56.789Z,100.00
2022-10-15T06:07:23.893Z,100.00
2022-10-15T06:09:50.733Z,100.00
2022-10-15T06:12:17.442Z,100.00
2022-10-15T06:14:44.134Z,100.00
2022-10-15T06:17:10.860Z,100.00
2022-10-15T06:19:37.569Z,100.00
2022-10-15T06:22:04.372Z,100.00
2022-10-15T06:24:31.384Z,100.00
2022-10-15T06:27:04.587Z,100.00
2022-10-15T06:29:31.415Z,100.00
2022-10-15T06:31:58.150Z,100.00
2022-10-15T06:34:25.999Z,100.00
2022-10-15T06:36:53.224Z,100.00
2022-10-15T06:39:20.060Z,100.00
2022-10-15T06:41:46.834Z,100.00
2022-10-15T06:44:13.650Z,100.00
2022-10-15T06:46:40.480Z,100.00
2022-10-15T06:49:07.467Z,100.00
2022-10-15T06:51:34.583Z,100.00
2022-10-15T06:54:01.382Z,100.00
2022-10-15T06:56:28.220Z,100.00
2022-10-15T06:58:55.019Z,100.00
2022-10-15T07:01:22.901Z,100.00
2022-10-15T07:03:52.628Z,100.00
2022-10-15T07:06:19.442Z,100.00
2022-10-15T07:08:46.195Z,100.00
2022-10-15T07:11:13.096Z,100.00
2022-10-15T07:13:40.200Z,100.00
2022-10-15T07:16:08.682Z,100.00
2022-10-15T07:18:38.518Z,100.00
2022-10-15T07:21:06.656Z,100.00
2022-10-15T07:23:33.407Z,100.00
2022-10-15T07:26:01.051Z,100.00
2022-10-15T07:28:27.825Z,100.00
2022-10-15T07:30:54.567Z,100.00
2022-10-15T07:33:21.253Z,100.00
2022-10-15T07:35:48.388Z,100.00
2022-10-15T07:38:15.101Z,100.00
2022-10-15T07:40:41.885Z,100.00
2022-10-15T07:43:08.616Z,100.00
2022-10-15T07:45:36.309Z,100.00
2022-10-15T07:48:05.111Z,100.00
2022-10-15T07:50:35.430Z,100.00
2022-10-15T07:53:03.867Z,100.00
2022-10-15T07:55:30.648Z,100.00
2022-10-15T07:57:58.582Z,100.00
2022-10-15T08:00:25.331Z,100.00
2022-10-15T08:02:52.098Z,100.00
2022-10-15T08:05:18.799Z,100.00
2022-10-15T08:07:45.503Z,100.00
2022-10-15T08:10:13.518Z,100.00
2022-10-15T08:12:40.241Z,100.00
2022-10-15T08:15:07.790Z,100.00
2022-10-15T08:17:34.439Z,100.00
2022-10-15T08:20:01.296Z,100.00
2022-10-15T08:22:27.983Z,100.00
2022-10-15T08:24:54.777Z,100.00
2022-10-15T08:27:21.492Z,100.00
2022-10-15T08:29:48.414Z,100.00
2022-10-15T08:32:15.269Z,100.00
2022-10-15T08:34:42.163Z,100.00
2022-10-15T08:37:09.191Z,100.00
2022-10-15T08:39:36.743Z,100.00
2022-10-15T08:42:37.931Z,100.00
2022-10-15T08:45:16.459Z,100.00
2022-10-15T08:47:49.370Z,100.00
2022-10-15T08:50:51.764Z,100.00
2022-10-15T08:53:22.520Z,100.00
2022-10-15T08:55:51.604Z,100.00
2022-10-15T08:58:27.028Z,100.00
2022-10-15T09:01:12.526Z,100.00
2022-10-15T09:04:05.665Z,100.00
2022-10-15T09:06:39.479Z,100.00
2022-10-15T09:09:48.307Z,100.00
2022-10-15T09:12:45.179Z,100.00
2022-10-15T09:15:18.284Z,100.00
2022-10-15T09:17:47.616Z,100.00
2022-10-15T09:20:20.126Z,100.00
2022-10-15T09:22:51.060Z,100.00
2022-10-15T09:25:25.546Z,100.00
2022-10-15T09:27:55.338Z,100.00
2022-10-15T09:30:35.874Z,100.00
2022-10-15T09:33:25.308Z,100.00
2022-10-15T09:36:05.697Z,100.00
2022-10-15T09:39:12.734Z,100.00
2022-10-15T09:42:23.749Z,100.00
2022-10-15T09:44:54.458Z,100.00
2022-10-15T09:47:27.432Z,100.00
2022-10-15T09:49:54.242Z,100.00
2022-10-15T09:52:35.731Z,100.00
2022-10-15T09:55:31.846Z,100.00
2022-10-15T09:58:03.646Z,100.00
2022-10-15T10:00:52.265Z,100.00
2022-10-15T10:03:24.696Z,100.00
2022-10-15T10:05:51.807Z,100.00
2022-10-15T10:08:26.095Z,100.00
2022-10-15T10:11:11.211Z,100.00
2022-10-15T10:13:41.742Z,100.00
2022-10-15T10:16:10.533Z,100.00
2022-10-15T10:18:37.867Z,100.00
2022-10-15T10:21:27.160Z,100.00
2022-10-15T10:23:54.166Z,100.00
2022-10-15T10:26:21.227Z,100.00
2022-10-15T10:28:57.015Z,100.00
2022-10-15T10:31:29.498Z,100.00
2022-10-15T10:33:56.913Z,100.00
2022-10-15T10:36:35.314Z,100.00
2022-10-15T10:39:14.126Z,100.00
2022-10-15T10:41:51.344Z,100.00
2022-10-15T10:44:21.169Z,100.00
2022-10-15T10:47:06.485Z,100.00
2022-10-15T10:49:44.378Z,100.00
2022-10-15T10:52:32.482Z,100.00
2022-10-15T10:55:12.918Z,100.00
2022-10-15T10:57:50.126Z,100.00
2022-10-15T11:00:20.733Z,100.00
2022-10-15T11:03:03.729Z,100.00
2022-10-15T11:05:33.639Z,100.00
2022-10-15T11:08:19.180Z,100.00
2022-10-15T11:10:56.787Z,100.00
2022-10-15T11:13:35.065Z,100.00
2022-10-15T11:16:07.809Z,99.47
2022-10-15T11:18:34.521Z,98.97
2022-10-15T11:21:22.139Z,98.21
2022-10-15T11:24:15.261Z,97.79
2022-10-15T11:26:59.160Z,97.83
2022-10-15T11:29:42.088Z,96.86
2022-10-15T11:32:26.074Z,97.28
2022-10-15T11:35:41.013Z,89.00
2022-10-15T11:38:25.898Z,90.45
2022-10-15T11:41:11.506Z,87.54
2022-10-15T11:44:13.046Z,91.96
2022-10-15T11:46:49.866Z,95.68
2022-10-15T11:49:38.582Z,94.71
2022-10-15T11:52:42.187Z,89.76
2022-10-15T11:55:17.531Z,90.92
2022-10-15T11:57:45.725Z,92.02
2022-10-15T12:00:39.739Z,90.85
2022-10-15T12:03:19.836Z,90.11
2022-10-15T12:06:10.444Z,89.65
2022-10-15T12:08:41.755Z,86.59
2022-10-15T12:11:41.464Z,90.06
2022-10-15T12:14:39.307Z,88.50
2022-10-15T12:17:16.989Z,87.31
2022-10-15T12:19:51.808Z,85.94
2022-10-15T12:22:40.629Z,87.64
2022-10-15T12:25:38.433Z,89.57
2022-10-15T12:28:19.005Z,88.51
2022-10-15T12:30:58.044Z,87.68
2022-10-15T12:33:29.892Z,88.75
2022-10-15T12:35:58.715Z,83.64
2022-10-15T12:38:27.220Z,85.45
2022-10-15T12:40:55.902Z,84.26
2022-10-15T12:43:22.816Z,82.87
2022-10-15T12:45:52.821Z,82.06
2022-10-15T12:48:24.061Z,81.54
2022-10-15T12:51:16.085Z,83.11
2022-10-15T12:53:44.521Z,83.91
2022-10-15T12:56:19.972Z,85.39
2022-10-15T12:58:52.124Z,84.30
2022-10-15T13:01:21.982Z,85.85
2022-10-15T13:03:48.723Z,88.16
2022-10-15T13:06:21.476Z,87.25
2022-10-15T13:08:52.338Z,88.38
2022-10-15T13:11:29.159Z,89.61
2022-10-15T13:14:00.741Z,87.08
2022-10-15T13:16:27.753Z,87.81
2022-10-15T13:18:56.787Z,88.08
2022-10-15T13:21:50.722Z,89.89
2022-10-15T13:24:19.398Z,91.09
2022-10-15T13:26:46.193Z,90.60
2022-10-15T13:29:25.014Z,92.28
2022-10-15T13:31:54.548Z,92.30
2022-10-15T13:34:32.725Z,92.18
2022-10-15T13:37:01.144Z,91.62
2022-10-15T13:39:35.632Z,91.43
2022-10-15T13:42:16.011Z,92.72
2022-10-15T13:44:44.772Z,92.48
2022-10-15T13:47:31.017Z,92.73
2022-10-15T13:50:21.514Z,94.78
2022-10-15T13:52:52.926Z,95.05
2022-10-15T13:55:25.520Z,95.21
2022-10-15T13:57:58.629Z,96.83
2022-10-15T14:00:28.595Z,98.85
2022-10-15T14:03:07.670Z,100.00
2022-10-15T14:05:34.563Z,100.00
2022-10-15T14:08:01.796Z,100.00
2022-10-15T14:10:28.708Z,100.00
2022-10-15T14:12:55.812Z,100.00
2022-10-15T14:15:53.003Z,100.00
2022-10-15T14:18:33.635Z,100.00
2022-10-15T14:21:00.841Z,100.00
2022-10-15T14:23:28.363Z,100.00
2022-10-15T14:26:02.868Z,96.46
2022-10-15T14:28:31.967Z,94.06
2022-10-15T14:31:01.202Z,94.82
2022-10-15T14:33:31.473Z,96.04
2022-10-15T14:36:23.121Z,96.48
2022-10-15T14:38:52.033Z,98.94
2022-10-15T14:41:29.213Z,100.00
2022-10-15T14:44:06.142Z,100.00
2022-10-15T14:46:45.531Z,100.00
2022-10-15T14:49:35.781Z,100.00
2022-10-15T14:52:08.681Z,100.00
2022-10-15T14:54:39.675Z,100.00
2022-10-15T14:57:16.532Z,100.00
2022-10-15T14:59:43.388Z,100.00
2022-10-15T15:02:15.073Z,100.00
2022-10-15T15:04:44.775Z,100.00
2022-10-15T15:07:21.019Z,100.00
2022-10-15T15:09:48.834Z,100.00
2022-10-15T15:12:27.640Z,100.00
2022-10-15T15:14:55.081Z,100.00
2022-10-15T15:17:24.447Z,100.00
2022-10-15T15:19:53.253Z,100.00
2022-10-15T15:22:28.137Z,100.00
2022-10-15T15:24:55.734Z,100.00
2022-10-15T15:27:26.528Z,100.00
2022-10-15T15:29:53.840Z,100.00
2022-10-15T15:32:21.783Z,100.00
2022-10-15T15:34:49.376Z,100.00
2022-10-15T15:37:24.249Z,100.00
2022-10-15T15:39:51.019Z,100.00
2022-10-15T15:42:20.338Z,100.00
2022-10-15T15:44:50.097Z,100.00
2022-10-15T15:47:17.090Z,100.00
2022-10-15T15:49:43.805Z,100.00
2022-10-15T15:52:19.020Z,100.00
2022-10-15T15:54:46.590Z,100.00
2022-10-15T15:57:13.877Z,100.00
2022-10-15T15:59:40.698Z,100.00
2022-10-15T16:02:07.459Z,100.00
2022-10-15T16:04:34.330Z,100.00
2022-10-15T16:07:01.042Z,100.00
2022-10-15T16:09:27.915Z,100.00
2022-10-15T16:11:54.565Z,100.00
2022-10-15T16:14:21.264Z,100.00
2022-10-15T16:16:48.464Z,100.00
2022-10-15T16:19:15.482Z,100.00
2022-10-15T16:21:42.198Z,100.00
2022-10-15T16:24:08.892Z,100.00
2022-10-15T16:26:38.349Z,100.00
2022-10-15T16:29:06.026Z,100.00
2022-10-15T16:31:36.562Z,100.00
2022-10-15T16:34:06.496Z,100.00
2022-10-15T16:36:33.206Z,100.00
2022-10-15T16:38:59.928Z,100.00
2022-10-15T16:41:26.640Z,100.00
2022-10-15T16:43:53.345Z,100.00
2022-10-15T16:46:20.326Z,100.00
2022-10-15T16:48:52.193Z,100.00
2022-10-15T16:51:18.844Z,100.00
2022-10-15T16:53:48.391Z,100.00
2022-10-15T16:56:20.051Z,100.00
2022-10-15T16:58:46.956Z,100.00
2022-10-15T17:01:16.023Z,100.00
2022-10-15T17:03:43.790Z,100.00
2022-10-15T17:06:13.111Z,100.00
2022-10-15T17:08:48.351Z,100.00
2022-10-15T17:11:20.195Z,100.00
2022-10-15T17:13:48.024Z,100.00
2022-10-15T17:16:23.402Z,100.00
2022-10-15T17:21:27.195Z,100.00
2022-10-15T17:23:55.337Z,100.00
2022-10-15T17:26:25.231Z,100.00
2022-10-15T17:28:52.311Z,100.00
2022-10-15T17:31:24.423Z,100.00
2022-10-15T17:33:56.208Z,100.00
2022-10-15T17:36:23.149Z,100.00
2022-10-15T17:38:49.803Z,100.00
2022-10-15T17:41:21.354Z,100.00
2022-10-15T17:43:48.952Z,100.00
2022-10-15T17:46:21.030Z,100.00
2022-10-15T17:48:48.234Z,100.00
2022-10-15T17:51:17.393Z,100.00
2022-10-15T17:53:44.483Z,100.00
2022-10-15T17:56:11.440Z,100.00
2022-10-15T17:58:38.691Z,100.00
2022-10-15T18:01:05.902Z,100.00
2022-10-15T18:03:32.713Z,100.00
2022-10-15T18:06:06.255Z,100.00
2022-10-15T18:08:32.909Z,100.00
2022-10-15T18:10:59.877Z,100.00
2022-10-15T18:13:26.652Z,100.00
2022-10-15T18:15:55.195Z,100.00
2022-10-15T18:18:21.994Z,100.00
2022-10-15T18:20:48.873Z,100.00
2022-10-15T18:23:15.698Z,100.00
2022-10-15T18:25:42.348Z,100.00
2022-10-15T18:28:09.244Z,100.00
2022-10-15T18:30:37.192Z,100.00
2022-10-15T18:33:04.443Z,100.00
2022-10-15T18:35:34.617Z,100.00
2022-10-15T18:38:01.407Z,100.00
2022-10-15T18:40:28.149Z,100.00
2022-10-15T18:42:54.754Z,100.00
2022-10-15T18:45:21.358Z,100.00
2022-10-15T18:47:47.955Z,100.00
2022-10-15T18:50:14.573Z,100.00
2022-10-15T18:52:41.572Z,100.00
2022-10-15T18:55:08.813Z,100.00
2022-10-15T18:57:35.482Z,100.00
2022-10-15T19:00:02.138Z,100.00
2022-10-15T19:02:29.069Z,100.00
2022-10-15T19:04:55.858Z,100.00
2022-10-15T19:07:22.648Z,100.00
2022-10-15T19:09:49.301Z,100.00
2022-10-15T19:12:16.032Z,100.00
2022-10-15T19:14:44.260Z,100.00
2022-10-15T19:17:10.956Z,100.00
2022-10-15T19:19:38.694Z,100.00
2022-10-15T19:22:06.093Z,100.00
2022-10-15T19:24:32.868Z,100.00
2022-10-15T19:26:59.687Z,100.00
2022-10-15T19:29:29.287Z,100.00
2022-10-15T19:31:58.473Z,100.00
2022-10-15T19:34:25.122Z,100.00
2022-10-15T19:36:51.835Z,100.00
2022-10-15T19:39:21.244Z,100.00
2022-10-15T19:41:48.462Z,100.00
2022-10-15T19:44:17.697Z,100.00
2022-10-15T19:46:48.092Z,100.00
2022-10-15T19:49:15.077Z,100.00
2022-10-15T19:51:42.133Z,100.00
2022-10-15T19:54:08.900Z,100.00
2022-10-15T19:56:35.874Z,100.00
2022-10-15T19:59:05.305Z,100.00
2022-10-15T20:01:32.753Z,100.00
2022-10-15T20:04:04.802Z,100.00
2022-10-15T20:06:33.840Z,100.00
2022-10-15T20:09:02.312Z,100.00
2022-10-15T20:11:29.029Z,100.00
2022-10-15T20:13:55.714Z,100.00
2022-10-15T20:16:23.365Z,100.00
2022-10-15T20:18:51.086Z,100.00
2022-10-15T20:21:17.829Z,100.00
2022-10-15T20:23:45.524Z,100.00
2022-10-15T20:26:13.876Z,100.00
2022-10-15T20:28:42.158Z,100.00
2022-10-15T20:31:11.774Z,100.00
2022-10-15T20:33:40.328Z,100.00
2022-10-15T20:36:14.631Z,100.00
2022-10-15T20:38:42.695Z,100.00
2022-10-15T20:41:11.215Z,100.00
2022-10-15T20:43:37.995Z,100.00
2022-10-15T20:46:11.534Z,100.00
2022-10-15T20:48:39.630Z,100.00
2022-10-15T20:51:07.734Z,100.00
2022-10-15T20:53:35.187Z,100.00
2022-10-15T20:56:01.940Z,100.00
2022-10-15T20:58:30.862Z,100.00
2022-10-15T21:00:57.955Z,100.00
2022-10-15T21:03:25.467Z,100.00
2022-10-15T21:05:52.387Z,100.00
2022-10-15T21:08:19.028Z,100.00
2022-10-15T21:10:45.661Z,100.00
2022-10-15T21:13:12.287Z,100.00
2022-10-15T21:15:39.102Z,100.00
2022-10-15T21:18:05.782Z,100.00
2022-10-15T21:20:32.370Z,100.00
2022-10-15T21:22:59.005Z,100.00
2022-10-15T21:25:25.788Z,100.00
2022-10-15T21:27:52.446Z,100.00
2022-10-15T21:30:19.117Z,100.00
2022-10-15T21:32:45.764Z,100.00
2022-10-15T21:35:12.405Z,100.00
2022-10-15T21:37:39.203Z,100.00
2022-10-15T21:40:07.640Z,100.00
2022-10-15T21:42:34.514Z,100.00
2022-10-15T21:45:04.043Z,100.00
2022-10-15T21:47:31.818Z,100.00
2022-10-15T21:49:58.466Z,100.00
2022-10-15T21:52:27.631Z,100.00
2022-10-15T21:54:55.327Z,100.00
2022-10-15T21:57:22.129Z,100.00
2022-10-15T21:59:49.176Z,100.00
2022-10-15T22:10:56.014Z,100.00
2022-10-15T22:13:22.675Z,100.00
2022-10-15T22:15:49.373Z,100.00
2022-10-15T22:18:16.012Z,100.00
2022-10-15T22:20:42.598Z,100.00
2022-10-15T22:23:09.266Z,100.00
2022-10-15T22:25:36.203Z,100.00
2022-10-15T22:28:04.534Z,100.00
2022-10-15T22:30:31.165Z,100.00
2022-10-15T22:32:57.804Z,100.00
2022-10-15T22:35:24.429Z,100.00
2022-10-15T22:37:52.933Z,100.00
2022-10-15T22:40:19.529Z,100.00
2022-10-15T22:42:46.491Z,100.00
2022-10-15T22:45:13.104Z,100.00
2022-10-15T22:47:40.174Z,100.00
2022-10-15T22:50:07.209Z,100.00
2022-10-15T22:52:33.984Z,100.00
2022-10-15T22:55:00.844Z,100.00
2022-10-15T22:57:27.487Z,100.00
2022-10-15T22:59:57.170Z,100.00
2022-10-15T23:02:26.281Z,100.00
2022-10-15T23:04:53.158Z,100.00
2022-10-15T23:07:19.849Z,100.00
2022-10-15T23:09:49.506Z,100.00
2022-10-15T23:12:16.185Z,100.00
2022-10-15T23:14:42.863Z,100.00
2022-10-15T23:17:09.520Z,100.00
2022-10-15T23:19:36.102Z,100.00
2022-10-15T23:22:03.455Z,100.00
2022-10-15T23:24:30.900Z,100.00
2022-10-15T23:26:57.751Z,100.00
2022-10-15T23:29:25.489Z,100.00
2022-10-15T23:31:53.708Z,100.00
2022-10-15T23:34:22.842Z,100.00
2022-10-15T23:36:50.093Z,100.00
2022-10-15T23:39:19.113Z,100.00
2022-10-15T23:41:46.024Z,100.00
2022-10-15T23:44:12.687Z,100.00
2022-10-15T23:46:39.488Z,100.00
2022-10-15T23:49:06.331Z,100.00
2022-10-15T23:51:34.741Z,100.00
2022-10-15T23:54:02.786Z,100.00
2022-10-15T23:56:32.477Z,100.00
2022-10-15T23:59:00.333Z,100.00
